Time;durP1;ratioP1;P1;durP2;ratioP2;P2;SDS_P1;SDS_P2;PMS_P1;PMS_P2;Temp;Humidity;BMP_temperature;BMP_pressure;BME280_temperature;BME280_humidity;BME280_pressure;Samples;Min_cycle;Max_cycle;Signal;HPM_P1;HPM_P2
2022/06/02 00:00:50;;;;;;;0.60;0.60;;;;;;;;;;4988596;28;20449;-73
2022/06/02 00:03:39;;;;;;;0.90;0.90;;;;;;;;;;4983596;28;20939;-72
2022/06/02 00:06:14;;;;;;;2.60;0.60;;;;;;;;;;4978663;28;20536;-73
2022/06/02 00:08:49;;;;;;;0.60;0.60;;;;;;;;;;4989270;28;20469;-72
2022/06/02 00:11:29;;;;;;;0.73;0.73;;;;;;;;;;4987051;28;20498;-73
2022/06/02 00:14:05;;;;;;;0.60;0.60;;;;;;;;;;4986261;28;20421;-73
2022/06/02 00:16:40;;;;;;;6.63;0.60;;;;;;;;;;4988572;28;20441;-72
2022/06/02 00:19:11;;;;;;;0.70;0.70;;;;;;;;;;4982834;28;20440;-72
2022/06/02 00:21:40;;;;;;;1.80;0.63;;;;;;;;;;4988442;28;20428;-73
2022/06/02 00:24:17;;;;;;;0.50;0.50;;;;;;;;;;4989300;28;20455;-72
2022/06/02 00:26:46;;;;;;;0.50;0.50;;;;;;;;;;4992235;28;20805;-73
2022/06/02 00:29:12;;;;;;;0.80;0.80;;;;;;;;;;4990129;28;21003;-72
2022/06/02 00:31:45;;;;;;;0.90;0.67;;;;;;;;;;4989229;28;20449;-72
2022/06/02 00:34:22;;;;;;;0.73;0.73;;;;;;;;;;4991289;28;20728;-73
2022/06/02 00:36:59;;;;;;;2.60;0.53;;;;;;;;;;4992733;28;20491;-72
2022/06/02 00:39:25;;;;;;;0.50;0.50;;;;;;;;;;4989799;28;20801;-72
2022/06/02 00:41:53;;;;;;;0.77;0.63;;;;;;;;;;4985721;28;20444;-73
2022/06/02 00:44:32;;;;;;;0.60;0.60;;;;;;;;;;4988981;28;20441;-72
2022/06/02 00:47:02;;;;;;;0.63;0.63;;;;;;;;;;4992060;28;21094;-72
2022/06/02 00:49:34;;;;;;;0.60;0.60;;;;;;;;;;4991671;28;20751;-73
2022/06/02 00:52:03;;;;;;;0.47;0.47;;;;;;;;;;4985112;28;20512;-72
2022/06/02 00:57:34;;;;;;;0.50;0.50;;;;;;;;;;4991600;28;21012;-73
2022/06/02 01:00:01;;;;;;;0.60;0.60;;;;;;;;;;4989853;28;20433;-73
2022/06/02 01:02:27;;;;;;;5.90;0.80;;;;;;;;;;4987327;28;20793;-73
2022/06/02 01:05:00;;;;;;;0.90;0.90;;;;;;;;;;4989216;28;20448;-73
2022/06/02 01:07:35;;;;;;;0.80;0.77;;;;;;;;;;4991214;28;20540;-73
2022/06/02 01:10:07;;;;;;;0.63;0.63;;;;;;;;;;4991131;28;21103;-72
2022/06/02 01:12:52;;;;;;;0.60;0.60;;;;;;;;;;4986388;28;20430;-73
2022/06/02 01:15:23;;;;;;;2.47;0.60;;;;;;;;;;4989751;28;20447;-73
2022/06/02 01:17:58;;;;;;;0.60;0.60;;;;;;;;;;4991438;28;20455;-72
2022/06/02 01:20:37;;;;;;;0.80;0.80;;;;;;;;;;4989045;28;20586;-73
2022/06/02 01:23:12;;;;;;;0.83;0.83;;;;;;;;;;4984701;28;20488;-73
2022/06/02 01:25:57;;;;;;;0.73;0.73;;;;;;;;;;4988443;28;20518;-73
2022/06/02 01:28:31;;;;;;;0.87;0.60;;;;;;;;;;4987905;28;20569;-72
2022/06/02 01:31:15;;;;;;;4.47;0.70;;;;;;;;;;4989798;28;20484;-72
2022/06/02 01:34:04;;;;;;;1.37;0.87;;;;;;;;;;4984755;28;20548;-73
2022/06/02 01:36:49;;;;;;;0.67;0.67;;;;;;;;;;4990185;28;20445;-73
2022/06/02 01:39:15;;;;;;;0.60;0.60;;;;;;;;;;4985725;28;20576;-73
2022/06/02 01:41:40;;;;;;;0.70;0.70;;;;;;;;;;4990107;28;20531;-74
2022/06/02 01:44:16;;;;;;;0.67;0.67;;;;;;;;;;4988663;28;20436;-72
2022/06/02 01:46:42;;;;;;;1.33;0.73;;;;;;;;;;4989968;28;20436;-73
2022/06/02 01:49:11;;;;;;;1.17;0.90;;;;;;;;;;4987259;28;20444;-73
2022/06/02 01:51:57;;;;;;;0.80;0.80;;;;;;;;;;4984965;28;20523;-74
2022/06/02 01:54:41;;;;;;;0.93;0.93;;;;;;;;;;4986222;28;20441;-72
2022/06/02 01:57:27;;;;;;;1.33;0.90;;;;;;;;;;4989183;28;20432;-72
2022/06/02 02:00:01;;;;;;;2.57;1.27;;;;;;;;;;4984693;28;20956;-72
2022/06/02 02:02:46;;;;;;;1.87;0.93;;;;;;;;;;4985708;28;20507;-74
2022/06/02 02:05:18;;;;;;;1.07;1.07;;;;;;;;;;4986784;28;20503;-73
2022/06/02 02:07:54;;;;;;;0.90;0.90;;;;;;;;;;4989108;28;20437;-73
2022/06/02 02:10:47;;;;;;;6.87;0.90;;;;;;;;;;4986112;28;20576;-73
2022/06/02 02:13:13;;;;;;;0.67;0.67;;;;;;;;;;4977601;28;20860;-72
2022/06/02 02:15:58;;;;;;;2.93;0.50;;;;;;;;;;4988995;28;20949;-73
2022/06/02 02:18:30;;;;;;;0.60;0.50;;;;;;;;;;4986782;28;20465;-73
2022/06/02 02:20:56;;;;;;;0.63;0.63;;;;;;;;;;4986594;28;20516;-74
2022/06/02 02:23:28;;;;;;;0.70;0.70;;;;;;;;;;4987909;28;20527;-74
2022/06/02 02:26:02;;;;;;;8.63;1.37;;;;;;;;;;4989210;28;20431;-73
2022/06/02 02:28:47;;;;;;;0.80;0.80;;;;;;;;;;4989576;28;20448;-72
2022/06/02 02:31:25;;;;;;;0.83;0.83;;;;;;;;;;4985874;28;21042;-72
2022/06/02 02:34:14;;;;;;;0.60;0.60;;;;;;;;;;4987532;28;20913;-72
2022/06/02 02:36:59;;;;;;;0.67;0.67;;;;;;;;;;4975558;28;20566;-73
2022/06/02 02:39:45;;;;;;;0.90;0.90;;;;;;;;;;4989255;28;20443;-73
2022/06/02 02:42:15;;;;;;;6.43;0.73;;;;;;;;;;4985733;28;20472;-73
2022/06/02 02:44:46;;;;;;;2.73;0.60;;;;;;;;;;4988962;28;20436;-72
2022/06/02 02:47:23;;;;;;;0.80;0.80;;;;;;;;;;4985134;28;20437;-74
2022/06/02 02:49:52;;;;;;;0.80;0.80;;;;;;;;;;4988449;28;20546;-72
2022/06/02 02:52:33;;;;;;;1.03;1.00;;;;;;;;;;4988407;28;20480;-73
2022/06/02 02:55:08;;;;;;;1.00;1.00;;;;;;;;;;4989566;28;20464;-72
2022/06/02 02:57:40;;;;;;;1.80;1.00;;;;;;;;;;4984177;28;20437;-73
2022/06/02 03:00:19;;;;;;;1.10;1.00;;;;;;;;;;4989820;28;20435;-72
2022/06/02 03:03:04;;;;;;;1.90;0.93;;;;;;;;;;4990138;28;20520;-73
2022/06/02 03:05:39;;;;;;;0.90;0.90;;;;;;;;;;4988689;28;20433;-73
2022/06/02 03:08:10;;;;;;;2.20;0.90;;;;;;;;;;4986472;28;20472;-72
2022/06/02 03:10:38;;;;;;;0.87;0.87;;;;;;;;;;4987242;28;20861;-74
2022/06/02 03:13:21;;;;;;;3.90;1.70;;;;;;;;;;4989545;28;20429;-73
2022/06/02 03:15:58;;;;;;;0.97;0.73;;;;;;;;;;4988695;28;20801;-73
2022/06/02 03:18:42;;;;;;;1.37;0.70;;;;;;;;;;4985171;28;20437;-72
2022/06/02 03:21:11;;;;;;;2.00;1.00;;;;;;;;;;4983895;28;20440;-73
2022/06/02 03:23:43;;;;;;;0.70;0.70;;;;;;;;;;4986400;28;20792;-72
2022/06/02 03:26:12;;;;;;;2.10;0.90;;;;;;;;;;4987577;28;20433;-73
2022/06/02 03:28:48;;;;;;;2.73;0.80;;;;;;;;;;4988185;28;20425;-72
2022/06/02 03:31:29;;;;;;;3.07;1.17;;;;;;;;;;4988704;28;21006;-72
2022/06/02 03:34:05;;;;;;;1.10;0.77;;;;;;;;;;4989440;28;20954;-73
2022/06/02 03:36:50;;;;;;;3.77;1.47;;;;;;;;;;4989074;28;20431;-73
2022/06/02 03:39:34;;;;;;;1.03;1.03;;;;;;;;;;4986710;28;20440;-72
2022/06/02 03:42:21;;;;;;;0.80;0.80;;;;;;;;;;4985821;28;20444;-72
2022/06/02 03:45:06;;;;;;;1.33;0.90;;;;;;;;;;4986907;28;20473;-73
2022/06/02 03:47:40;;;;;;;0.90;0.90;;;;;;;;;;4989159;28;20441;-74
2022/06/02 03:50:06;;;;;;;0.97;0.97;;;;;;;;;;4986538;28;21027;-72
2022/06/02 03:52:43;;;;;;;3.03;1.50;;;;;;;;;;4987907;28;20484;-73
2022/06/02 03:55:11;;;;;;;2.77;1.33;;;;;;;;;;4988376;28;20529;-73
2022/06/02 03:57:40;;;;;;;4.53;1.40;;;;;;;;;;4988396;28;20526;-72
2022/06/02 04:00:19;;;;;;;1.20;1.20;;;;;;;;;;4991241;28;20575;-73
2022/06/02 04:02:49;;;;;;;0.80;0.80;;;;;;;;;;4992643;28;20441;-73
2022/06/02 04:05:15;;;;;;;1.30;1.30;;;;;;;;;;4990950;28;20428;-73
2022/06/02 04:07:46;;;;;;;1.90;1.20;;;;;;;;;;4991690;28;20447;-72
2022/06/02 04:10:12;;;;;;;1.00;0.90;;;;;;;;;;4992118;28;20216;-73
2022/06/02 04:15:26;;;;;;;1.87;1.00;;;;;;;;;;4990518;28;20471;-73
2022/06/02 04:18:01;;;;;;;1.03;1.03;;;;;;;;;;4993011;28;20421;-73
2022/06/02 04:20:36;;;;;;;1.30;1.20;;;;;;;;;;4990471;28;20454;-72
2022/06/02 04:23:21;;;;;;;1.20;1.10;;;;;;;;;;4992289;28;20428;-73
2022/06/02 04:25:52;;;;;;;3.13;1.40;;;;;;;;;;4991435;28;20452;-72
2022/06/02 04:28:21;;;;;;;0.90;0.90;;;;;;;;;;4992293;28;20428;-72
2022/06/02 04:30:55;;;;;;;2.83;1.00;;;;;;;;;;4992107;28;20542;-73
2022/06/02 04:33:34;;;;;;;4.53;1.27;;;;;;;;;;4992395;28;20445;-73
2022/06/02 04:36:18;;;;;;;2.90;1.00;;;;;;;;;;4986827;28;20515;-75
2022/06/02 04:39:04;;;;;;;1.90;1.20;;;;;;;;;;4991213;28;20518;-74
2022/06/02 04:41:46;;;;;;;2.00;1.17;;;;;;;;;;4989522;28;20437;-74
2022/06/02 04:44:27;;;;;;;1.00;1.00;;;;;;;;;;4991891;28;20471;-72
2022/06/02 04:46:53;;;;;;;1.03;1.00;;;;;;;;;;4990785;28;20494;-74
2022/06/02 04:49:40;;;;;;;2.53;1.17;;;;;;;;;;4989009;28;20965;-73
2022/06/02 04:52:11;;;;;;;1.10;1.10;;;;;;;;;;4987917;28;20980;-73
2022/06/02 04:54:49;;;;;;;1.63;1.43;;;;;;;;;;4989562;28;20437;-73
2022/06/02 04:57:33;;;;;;;1.03;1.03;;;;;;;;;;4990268;28;20441;-72
2022/06/02 05:00:02;;;;;;;0.90;0.90;;;;;;;;;;5002662;28;20433;-73
2022/06/02 05:02:31;;;;;;;1.00;0.90;;;;;;;;;;4991617;28;20432;-74
2022/06/02 05:04:57;;;;;;;1.50;0.83;;;;;;;;;;4989677;28;20440;-72
2022/06/02 05:07:29;;;;;;;1.17;1.17;;;;;;;;;;4989459;28;20440;-74
2022/06/02 05:10:00;;;;;;;2.53;1.53;;;;;;;;;;4989360;28;20288;-73
2022/06/02 05:12:29;;;;;;;1.23;1.10;;;;;;;;;;4989723;28;20443;-72
2022/06/02 05:15:14;;;;;;;2.63;1.40;;;;;;;;;;4988534;28;20441;-72
2022/06/02 05:17:46;;;;;;;1.30;1.20;;;;;;;;;;4988359;28;20440;-73
2022/06/02 05:20:21;;;;;;;1.80;1.17;;;;;;;;;;4990791;28;20421;-74
2022/06/02 05:22:56;;;;;;;3.47;1.70;;;;;;;;;;4991479;28;20991;-73
2022/06/02 05:25:41;;;;;;;5.13;1.93;;;;;;;;;;4990571;28;20535;-72
2022/06/02 05:28:15;;;;;;;1.60;1.50;;;;;;;;;;4990188;28;20527;-74
2022/06/02 05:30:47;;;;;;;1.30;1.20;;;;;;;;;;4990154;28;20484;-73
2022/06/02 05:33:16;;;;;;;4.13;1.27;;;;;;;;;;4991837;28;20856;-73
2022/06/02 05:35:57;;;;;;;1.60;1.47;;;;;;;;;;4991430;28;20433;-73
2022/06/02 05:38:26;;;;;;;1.87;1.50;;;;;;;;;;4990559;28;20467;-72
2022/06/02 05:41:08;;;;;;;1.03;0.97;;;;;;;;;;4990181;28;20658;-73
2022/06/02 05:43:37;;;;;;;2.83;1.10;;;;;;;;;;4989382;28;20447;-73
2022/06/02 05:46:11;;;;;;;5.03;1.47;;;;;;;;;;4983798;28;20446;-74
2022/06/02 05:48:48;;;;;;;2.60;1.17;;;;;;;;;;4990607;28;21000;-72
2022/06/02 05:51:13;;;;;;;1.27;1.10;;;;;;;;;;4987598;28;20500;-73
2022/06/02 05:53:56;;;;;;;1.50;1.40;;;;;;;;;;4987588;28;20536;-73
2022/06/02 05:56:41;;;;;;;1.00;1.00;;;;;;;;;;4986348;28;20559;-74
2022/06/02 05:59:07;;;;;;;1.17;1.07;;;;;;;;;;4986795;28;20431;-73
2022/06/02 06:01:43;;;;;;;1.20;1.10;;;;;;;;;;4987871;28;20473;-73
2022/06/02 06:04:27;;;;;;;1.57;1.57;;;;;;;;;;4987603;28;20476;-74
2022/06/02 06:06:59;;;;;;;1.33;1.33;;;;;;;;;;4990553;28;20937;-72
2022/06/02 06:09:34;;;;;;;1.13;1.13;;;;;;;;;;4989637;28;21782;-73
2022/06/02 06:12:00;;;;;;;1.57;1.20;;;;;;;;;;4984516;28;20457;-72
2022/06/02 06:14:45;;;;;;;2.60;1.20;;;;;;;;;;4983126;28;20429;-72
2022/06/02 06:17:26;;;;;;;6.97;1.60;;;;;;;;;;4986245;28;20668;-72
2022/06/02 06:20:16;;;;;;;4.23;1.60;;;;;;;;;;4988828;28;20429;-72
2022/06/02 06:22:59;;;;;;;1.17;1.17;;;;;;;;;;4982496;28;20865;-72
2022/06/02 06:25:48;;;;;;;0.77;0.70;;;;;;;;;;4985898;28;20444;-72
2022/06/02 06:28:18;;;;;;;2.73;1.40;;;;;;;;;;4979430;28;20804;-72
2022/06/02 06:30:50;;;;;;;2.10;1.40;;;;;;;;;;4990726;28;20520;-72
2022/06/02 06:33:17;;;;;;;3.47;1.13;;;;;;;;;;4987839;28;20456;-72
2022/06/02 06:36:02;;;;;;;16.23;2.37;;;;;;;;;;4986535;28;20476;-72
2022/06/02 06:38:28;;;;;;;0.90;0.90;;;;;;;;;;4987453;28;20436;-74
2022/06/02 06:41:07;;;;;;;0.83;0.83;;;;;;;;;;4989046;28;20445;-70
2022/06/02 06:43:42;;;;;;;1.20;1.20;;;;;;;;;;4987939;28;20201;-76
2022/06/02 06:46:14;;;;;;;1.03;1.03;;;;;;;;;;4987922;28;20933;-72
2022/06/02 06:48:50;;;;;;;2.43;1.70;;;;;;;;;;4988341;28;20464;-71
2022/06/02 06:51:35;;;;;;;0.97;0.97;;;;;;;;;;4989302;28;20980;-73
2022/06/02 06:54:09;;;;;;;1.00;0.83;;;;;;;;;;4987625;28;20575;-74
2022/06/02 06:56:45;;;;;;;2.50;0.80;;;;;;;;;;4986771;28;20453;-75
2022/06/02 06:59:27;;;;;;;0.77;0.77;;;;;;;;;;4987247;28;20443;-74
2022/06/02 07:02:13;;;;;;;2.73;1.20;;;;;;;;;;4989605;28;20445;-72
2022/06/02 07:04:45;;;;;;;1.13;1.03;;;;;;;;;;4987732;28;20479;-71
2022/06/02 07:07:17;;;;;;;6.53;1.50;;;;;;;;;;4986025;28;20444;-72
2022/06/02 07:09:43;;;;;;;1.10;1.10;;;;;;;;;;4986572;28;20484;-71
2022/06/02 07:15:03;;;;;;;1.10;1.10;;;;;;;;;;4987143;28;20515;-73
2022/06/02 07:17:35;;;;;;;1.83;0.93;;;;;;;;;;4983450;28;20836;-72
2022/06/02 07:20:08;;;;;;;6.50;0.90;;;;;;;;;;4988736;28;20429;-72
2022/06/02 07:23:00;;;;;;;1.60;0.83;;;;;;;;;;4986317;28;20496;-73
2022/06/02 07:25:35;;;;;;;5.83;1.23;;;;;;;;;;4971327;28;22317;-71
2022/06/02 07:28:24;;;;;;;1.87;1.03;;;;;;;;;;4984242;28;20438;-75
2022/06/02 07:31:09;;;;;;;1.07;0.80;;;;;;;;;;4978762;28;20566;-73
2022/06/02 07:33:41;;;;;;;1.00;1.00;;;;;;;;;;4987973;28;20441;-72
2022/06/02 07:36:16;;;;;;;1.70;1.60;;;;;;;;;;4989484;28;20433;-72
2022/06/02 07:38:51;;;;;;;1.20;1.20;;;;;;;;;;4987339;28;20434;-72
2022/06/02 07:41:21;;;;;;;0.80;0.80;;;;;;;;;;4987827;28;20939;-72
2022/06/02 07:43:56;;;;;;;0.80;0.80;;;;;;;;;;4987190;28;20437;-74
2022/06/02 07:46:37;;;;;;;1.00;1.00;;;;;;;;;;5024129;23;20871;-72
2022/06/02 07:49:10;;;;;;;0.80;0.80;;;;;;;;;;4950088;28;20582;-71
2022/06/02 07:51:36;;;;;;;2.60;1.23;;;;;;;;;;4948653;29;20463;-72
2022/06/02 07:54:09;;;;;;;0.90;0.90;;;;;;;;;;4945909;28;20442;-73
2022/06/02 07:56:51;;;;;;;4.93;0.90;;;;;;;;;;4948583;28;20434;-72
2022/06/02 07:59:29;;;;;;;1.43;1.23;;;;;;;;;;4947243;28;20431;-72
2022/06/02 08:02:06;;;;;;;1.30;1.30;;;;;;;;;;4946544;28;20984;-74
2022/06/02 08:04:32;;;;;;;0.80;0.80;;;;;;;;;;4950218;28;20437;-73
2022/06/02 08:07:12;;;;;;;2.83;1.47;;;;;;;;;;4948458;28;20442;-71
2022/06/02 08:09:50;;;;;;;1.00;1.00;;;;;;;;;;4949966;28;20286;-71
2022/06/02 08:12:19;;;;;;;1.00;1.00;;;;;;;;;;4950460;28;20442;-73
2022/06/02 08:14:57;;;;;;;3.20;0.80;;;;;;;;;;4949471;28;20943;-71
2022/06/02 08:17:29;;;;;;;1.00;1.00;;;;;;;;;;4947750;28;20962;-75
2022/06/02 08:20:11;;;;;;;1.53;0.93;;;;;;;;;;4964252;28;20820;-71
2022/06/02 08:22:44;;;;;;;0.90;0.90;;;;;;;;;;4962109;28;20442;-73
2022/06/02 08:25:14;;;;;;;1.30;1.30;;;;;;;;;;4947971;28;20947;-80
2022/06/02 08:27:59;;;;;;;0.90;0.87;;;;;;;;;;4960754;28;20443;-74
2022/06/02 08:30:48;;;;;;;3.17;1.00;;;;;;;;;;4949413;28;20485;-75
2022/06/02 08:33:28;;;;;;;0.90;0.90;;;;;;;;;;4946455;28;20582;-73
2022/06/02 08:36:15;;;;;;;0.80;0.80;;;;;;;;;;4949794;28;20927;-72
2022/06/02 08:38:55;;;;;;;1.20;1.20;;;;;;;;;;4950097;28;20422;-74
2022/06/02 08:41:30;;;;;;;1.53;1.43;;;;;;;;;;4965716;28;20438;-75
2022/06/02 08:44:15;;;;;;;2.37;1.07;;;;;;;;;;4965683;28;20776;-73
2022/06/02 08:46:50;;;;;;;1.00;1.00;;;;;;;;;;4951603;28;20470;-71
2022/06/02 08:49:35;;;;;;;1.00;1.00;;;;;;;;;;4968496;28;20950;-72
2022/06/02 08:52:13;;;;;;;1.23;0.80;;;;;;;;;;4954458;28;20434;-73
2022/06/02 08:54:55;;;;;;;2.73;0.77;;;;;;;;;;4953984;28;20485;-75
2022/06/02 08:57:40;;;;;;;1.33;1.10;;;;;;;;;;4953493;28;20422;-74
2022/06/02 09:00:28;;;;;;;0.60;0.60;;;;;;;;;;4954104;28;20450;-73
2022/06/02 09:03:09;;;;;;;9.60;1.20;;;;;;;;;;4952008;28;20442;-72
2022/06/02 09:05:54;;;;;;;3.23;1.20;;;;;;;;;;4951573;28;20439;-73
2022/06/02 09:08:23;;;;;;;1.90;1.00;;;;;;;;;;4953278;28;20975;-74
2022/06/02 09:10:49;;;;;;;0.73;0.73;;;;;;;;;;4953912;28;20486;-71
2022/06/02 09:13:34;;;;;;;1.53;1.10;;;;;;;;;;4951696;28;20530;-75
2022/06/02 09:16:12;;;;;;;1.33;1.20;;;;;;;;;;4954097;28;20437;-75
2022/06/02 09:18:41;;;;;;;0.97;0.97;;;;;;;;;;4953493;28;20435;-74
2022/06/02 09:21:10;;;;;;;1.30;1.20;;;;;;;;;;4952842;28;20482;-75
2022/06/02 09:23:36;;;;;;;1.83;0.93;;;;;;;;;;4953382;28;20430;-74
2022/06/02 09:26:28;;;;;;;1.30;1.30;;;;;;;;;;4952077;28;20431;-75
2022/06/02 09:28:54;;;;;;;0.50;0.50;;;;;;;;;;4953504;28;20285;-75
2022/06/02 09:31:39;;;;;;;0.70;0.70;;;;;;;;;;4952628;28;20574;-75
2022/06/02 09:34:34;;;;;;;4.97;1.00;;;;;;;;;;4950707;28;20435;-74
2022/06/02 09:37:16;;;;;;;8.43;1.57;;;;;;;;;;4948650;28;20431;-74
2022/06/02 09:40:00;;;;;;;1.33;0.90;;;;;;;;;;4967890;28;20442;-72
2022/06/02 09:42:43;;;;;;;0.90;0.90;;;;;;;;;;4952473;28;20994;-73
2022/06/02 09:45:09;;;;;;;1.60;1.20;;;;;;;;;;4950921;28;20451;-72
2022/06/02 09:47:54;;;;;;;1.17;1.17;;;;;;;;;;4952747;28;20475;-74
2022/06/02 09:50:47;;;;;;;1.00;1.00;;;;;;;;;;4966776;28;20482;-74
2022/06/02 09:53:30;;;;;;;2.17;1.23;;;;;;;;;;4950518;28;20501;-75
2022/06/02 09:55:56;;;;;;;3.33;0.90;;;;;;;;;;4952893;28;20418;-73
2022/06/02 09:58:41;;;;;;;1.40;1.30;;;;;;;;;;4948780;28;20434;-72
2022/06/02 10:01:26;;;;;;;0.83;0.83;;;;;;;;;;4967299;28;20601;-75
2022/06/02 10:04:11;;;;;;;0.73;0.73;;;;;;;;;;4952286;28;20433;-72
2022/06/02 10:06:57;;;;;;;1.17;1.17;;;;;;;;;;4966615;28;20912;-75
2022/06/02 10:09:43;;;;;;;1.20;1.13;;;;;;;;;;4951696;28;20869;-74
2022/06/02 10:15:05;;;;;;;2.03;1.10;;;;;;;;;;4952113;28;20510;-74
2022/06/02 10:17:43;;;;;;;2.63;1.30;;;;;;;;;;4948613;28;20923;-75
2022/06/02 10:20:23;;;;;;;3.90;1.70;;;;;;;;;;4950835;28;20640;-74
2022/06/02 10:22:55;;;;;;;7.40;1.10;;;;;;;;;;4951287;28;20435;-76
2022/06/02 10:25:27;;;;;;;1.00;1.00;;;;;;;;;;4964628;28;20517;-74
2022/06/02 10:28:16;;;;;;;3.07;1.20;;;;;;;;;;4950134;28;20434;-72
2022/06/02 10:31:01;;;;;;;0.80;0.80;;;;;;;;;;4952531;28;20485;-73
2022/06/02 10:33:40;;;;;;;1.10;1.10;;;;;;;;;;4949557;28;20435;-73
2022/06/02 10:36:24;;;;;;;3.43;1.83;;;;;;;;;;4951805;28;20457;-73
2022/06/02 10:39:09;;;;;;;1.10;1.10;;;;;;;;;;4952005;28;20505;-75
2022/06/02 10:41:50;;;;;;;2.87;1.83;;;;;;;;;;4952038;28;20439;-72
2022/06/02 10:44:18;;;;;;;1.30;1.30;;;;;;;;;;4945120;28;20439;-75
2022/06/02 10:47:03;;;;;;;8.03;0.80;;;;;;;;;;4949718;28;20478;-84
2022/06/02 10:49:38;;;;;;;1.50;1.03;;;;;;;;;;4951142;28;20458;-76
2022/06/02 10:52:23;;;;;;;5.70;1.07;;;;;;;;;;4950225;28;20485;-76
2022/06/02 10:54:55;;;;;;;1.47;1.33;;;;;;;;;;4948773;28;20872;-73
2022/06/02 10:57:29;;;;;;;0.80;0.80;;;;;;;;;;4950280;28;20795;-81
2022/06/02 11:00:13;;;;;;;2.40;1.20;;;;;;;;;;4952068;28;20892;-75
2022/06/02 11:02:54;;;;;;;1.10;1.10;;;;;;;;;;4949837;28;20490;-75
2022/06/02 11:05:29;;;;;;;0.93;0.93;;;;;;;;;;4951266;28;20449;-75
2022/06/02 11:07:55;;;;;;;1.00;1.00;;;;;;;;;;4950212;28;20441;-72
2022/06/02 11:10:33;;;;;;;3.60;1.30;;;;;;;;;;4949223;28;20478;-72
2022/06/02 11:13:04;;;;;;;3.50;1.97;;;;;;;;;;4949740;28;20198;-74
2022/06/02 11:15:30;;;;;;;0.70;0.70;;;;;;;;;;4946577;28;20439;-75
2022/06/02 11:18:15;;;;;;;0.90;0.90;;;;;;;;;;4946954;29;20466;-72
2022/06/02 11:20:53;;;;;;;6.70;1.13;;;;;;;;;;4950025;28;20434;-73
2022/06/02 11:23:35;;;;;;;6.93;1.00;;;;;;;;;;4949098;28;20450;-74
2022/06/02 11:26:19;;;;;;;2.10;1.00;;;;;;;;;;4951280;28;20458;-74
2022/06/02 11:28:45;;;;;;;2.83;0.93;;;;;;;;;;4966066;28;21528;-76
2022/06/02 11:31:21;;;;;;;2.67;1.10;;;;;;;;;;4959062;28;20491;-75
2022/06/02 11:34:05;;;;;;;2.23;1.03;;;;;;;;;;4946086;28;20197;-75
2022/06/02 11:36:50;;;;;;;21.27;1.40;;;;;;;;;;4943832;28;20451;-76
2022/06/02 11:39:16;;;;;;;1.03;1.03;;;;;;;;;;4948117;28;20447;-77
2022/06/02 11:41:45;;;;;;;6.00;1.37;;;;;;;;;;4949771;28;20439;-76
2022/06/02 11:44:32;;;;;;;2.70;1.40;;;;;;;;;;4947863;28;20442;-77
2022/06/02 11:47:06;;;;;;;1.13;1.13;;;;;;;;;;4946020;29;20553;-77
2022/06/02 11:49:51;;;;;;;1.00;1.00;;;;;;;;;;4963558;28;20434;-74
2022/06/02 11:52:34;;;;;;;2.30;1.03;;;;;;;;;;4948143;28;20946;-77
2022/06/02 11:55:19;;;;;;;1.27;1.27;;;;;;;;;;4949710;28;20474;-76
2022/06/02 11:57:49;;;;;;;1.60;1.23;;;;;;;;;;4947862;28;20454;-77
2022/06/02 12:00:21;;;;;;;1.00;1.00;;;;;;;;;;4947625;28;20445;-75
2022/06/02 12:02:50;;;;;;;1.53;1.30;;;;;;;;;;4949597;28;20943;-74
2022/06/02 12:05:29;;;;;;;0.97;0.97;;;;;;;;;;4947758;28;20450;-76
2022/06/02 12:07:58;;;;;;;5.57;1.30;;;;;;;;;;4948243;28;20426;-76
2022/06/02 12:10:47;;;;;;;1.03;1.03;;;;;;;;;;4949262;28;20478;-73
2022/06/02 12:13:32;;;;;;;1.07;1.07;;;;;;;;;;4946082;28;20924;-74
2022/06/02 12:16:16;;;;;;;1.60;1.33;;;;;;;;;;4946313;28;20431;-74
2022/06/02 12:18:49;;;;;;;1.40;1.40;;;;;;;;;;4944567;28;20523;-75
2022/06/02 12:21:33;;;;;;;14.33;1.97;;;;;;;;;;4949022;28;20537;-78
2022/06/02 12:24:05;;;;;;;16.63;3.20;;;;;;;;;;4948805;28;20514;-78
2022/06/02 12:26:37;;;;;;;5.90;2.17;;;;;;;;;;4950846;28;20500;-77
2022/06/02 12:29:10;;;;;;;4.33;2.20;;;;;;;;;;4951615;28;20505;-78
2022/06/02 12:31:39;;;;;;;9.17;1.97;;;;;;;;;;4954144;28;20493;-78
2022/06/02 12:34:24;;;;;;;11.80;2.30;;;;;;;;;;4954224;28;20427;-74
2022/06/02 12:37:05;;;;;;;12.50;2.50;;;;;;;;;;4948034;28;20450;-73
2022/06/02 12:39:31;;;;;;;2.10;1.80;;;;;;;;;;4952920;28;20508;-76
2022/06/02 12:42:16;;;;;;;3.60;1.70;;;;;;;;;;4949845;28;20837;-72
2022/06/02 12:45:00;;;;;;;18.70;2.90;;;;;;;;;;4967940;28;20245;-73
2022/06/02 12:47:45;;;;;;;1.50;1.50;;;;;;;;;;4950296;28;20473;-74
2022/06/02 12:50:27;;;;;;;1.70;1.70;;;;;;;;;;4953824;28;20561;-77
2022/06/02 12:52:53;;;;;;;6.60;2.10;;;;;;;;;;4950119;28;20447;-73
2022/06/02 12:55:37;;;;;;;3.37;2.20;;;;;;;;;;4951338;28;20435;-77
2022/06/02 12:58:22;;;;;;;3.90;2.17;;;;;;;;;;4964771;28;20862;-76
2022/06/02 13:00:51;;;;;;;2.73;2.27;;;;;;;;;;4964445;28;20431;-74
2022/06/02 13:03:36;;;;;;;2.67;2.50;;;;;;;;;;4952291;28;20447;-76
2022/06/02 13:06:17;;;;;;;2.33;2.13;;;;;;;;;;4952210;28;20442;-72
2022/06/02 13:09:08;;;;;;;1.73;1.73;;;;;;;;;;4949742;28;20430;-74
2022/06/02 13:12:09;;;;;;;3.00;2.50;;;;;;;;;;4952214;29;20867;-74
2022/06/02 13:14:46;;;;;;;4.23;2.87;;;;;;;;;;4930131;29;20566;-76
2022/06/02 13:17:30;;;;;;;2.57;2.50;;;;;;;;;;4947443;28;20960;-78
2022/06/02 13:19:59;;;;;;;2.83;2.70;;;;;;;;;;4950469;28;20451;-75
2022/06/02 13:22:44;;;;;;;4.33;2.40;;;;;;;;;;4963815;28;20481;-73
2022/06/02 13:25:25;;;;;;;3.10;2.10;;;;;;;;;;4946815;28;20465;-77
2022/06/02 13:27:58;;;;;;;2.27;2.17;;;;;;;;;;4965842;28;20447;-77
2022/06/02 13:30:27;;;;;;;3.07;2.23;;;;;;;;;;4951150;28;20494;-73
2022/06/02 13:32:59;;;;;;;1.90;1.80;;;;;;;;;;4950715;28;20427;-76
2022/06/02 13:35:28;;;;;;;1.80;1.80;;;;;;;;;;4951739;28;20442;-77
2022/06/02 13:38:14;;;;;;;6.33;1.67;;;;;;;;;;4950294;28;21724;-77
2022/06/02 13:40:40;;;;;;;2.70;2.60;;;;;;;;;;4951793;28;20427;-77
2022/06/02 13:43:25;;;;;;;3.93;3.63;;;;;;;;;;4949427;29;20506;-77
2022/06/02 13:45:56;;;;;;;5.30;3.27;;;;;;;;;;4949738;28;20191;-73
2022/06/02 13:48:43;;;;;;;3.53;2.73;;;;;;;;;;4967083;28;20987;-72
2022/06/02 13:51:21;;;;;;;2.87;2.53;;;;;;;;;;4947874;28;20533;-73
2022/06/02 13:59:56;;;;;;;2.63;2.40;;;;;;;;;;4949042;28;20469;-75
2022/06/02 14:02:46;;;;;;;4.83;2.50;;;;;;;;;;4964765;28;20463;-74
2022/06/02 14:05:36;;;;;;;1.87;1.80;;;;;;;;;;4949977;28;20935;-72
2022/06/02 14:08:15;;;;;;;6.83;2.57;;;;;;;;;;4941770;28;20439;-74
2022/06/02 14:10:48;;;;;;;2.03;1.93;;;;;;;;;;4948243;28;20859;-73
2022/06/02 14:13:20;;;;;;;4.00;2.30;;;;;;;;;;4947891;28;20534;-73
2022/06/02 14:16:00;;;;;;;2.70;2.50;;;;;;;;;;4963126;28;20944;-73
2022/06/02 14:18:44;;;;;;;1.93;1.90;;;;;;;;;;4949475;28;20441;-74
2022/06/02 14:21:26;;;;;;;3.97;3.43;;;;;;;;;;4963836;28;20438;-76
2022/06/02 14:24:01;;;;;;;3.37;2.30;;;;;;;;;;4945003;28;20521;-72
2022/06/02 14:26:37;;;;;;;2.40;2.30;;;;;;;;;;4949198;28;20672;-77
2022/06/02 14:29:18;;;;;;;4.90;2.53;;;;;;;;;;4948913;28;20431;-78
2022/06/02 14:31:50;;;;;;;3.60;2.60;;;;;;;;;;4936909;28;20486;-73
2022/06/02 14:34:24;;;;;;;1.70;1.70;;;;;;;;;;4945162;28;20513;-78
2022/06/02 14:37:05;;;;;;;2.60;2.40;;;;;;;;;;4951520;28;20446;-72
2022/06/02 14:39:47;;;;;;;4.50;2.53;;;;;;;;;;4948642;28;20964;-72
2022/06/02 14:45:43;;;;;;;7.33;2.00;;;;;;;;;;4948023;28;20478;-65
2022/06/02 14:48:34;;;;;;;1.93;1.93;;;;;;;;;;4936127;28;20447;-73
2022/06/02 14:51:15;;;;;;;1.87;1.87;;;;;;;;;;4951067;28;20478;-72
2022/06/02 14:53:47;;;;;;;4.53;1.90;;;;;;;;;;4946543;28;20434;-76
2022/06/02 14:56:25;;;;;;;8.13;2.37;;;;;;;;;;4937768;28;20516;-76
2022/06/02 14:59:00;;;;;;;2.10;2.10;;;;;;;;;;4945036;28;20442;-72
2022/06/02 15:01:32;;;;;;;1.73;1.73;;;;;;;;;;4941122;28;21266;-72
2022/06/02 15:04:15;;;;;;;1.97;1.83;;;;;;;;;;4945626;28;20533;-73
2022/06/02 15:07:01;;;;;;;1.97;1.80;;;;;;;;;;4961595;28;20469;-77
2022/06/02 15:09:27;;;;;;;2.20;1.57;;;;;;;;;;4944407;28;20449;-74
2022/06/02 15:11:56;;;;;;;3.27;2.97;;;;;;;;;;4943719;28;20502;-77
2022/06/02 15:14:34;;;;;;;1.83;1.73;;;;;;;;;;4944897;28;20191;-74
2022/06/02 15:17:11;;;;;;;1.70;1.60;;;;;;;;;;4940824;29;20451;-75
2022/06/02 15:19:43;;;;;;;3.23;2.40;;;;;;;;;;4944409;29;20493;-72
2022/06/02 15:22:28;;;;;;;5.73;2.20;;;;;;;;;;4944573;28;20467;-72
2022/06/02 15:25:00;;;;;;;1.80;1.70;;;;;;;;;;4941726;28;20569;-72
2022/06/02 15:27:45;;;;;;;2.50;2.40;;;;;;;;;;4942719;28;20513;-77
2022/06/02 15:30:13;;;;;;;2.03;2.03;;;;;;;;;;4940615;28;20545;-77
2022/06/02 15:32:58;;;;;;;1.90;1.80;;;;;;;;;;4946508;28;20455;-77
2022/06/02 15:35:40;;;;;;;2.13;1.80;;;;;;;;;;4962012;28;20431;-75
2022/06/02 15:38:25;;;;;;;2.13;2.03;;;;;;;;;;4946900;28;20550;-73
2022/06/02 15:40:51;;;;;;;1.60;1.60;;;;;;;;;;4941195;28;20430;-72
2022/06/02 15:43:35;;;;;;;2.10;2.10;;;;;;;;;;4944308;28;20925;-73
2022/06/02 15:46:26;;;;;;;3.47;2.37;;;;;;;;;;4942316;28;20321;-73
2022/06/02 15:49:00;;;;;;;1.50;1.50;;;;;;;;;;4948982;28;20442;-74
2022/06/02 15:51:52;;;;;;;6.93;1.73;;;;;;;;;;4948888;28;20486;-74
2022/06/02 15:54:21;;;;;;;3.07;1.57;;;;;;;;;;4947657;28;20438;-76
2022/06/02 15:57:06;;;;;;;1.77;1.67;;;;;;;;;;4953535;28;20442;-77
2022/06/02 15:59:50;;;;;;;6.20;1.50;;;;;;;;;;4955037;28;20435;-76
2022/06/02 16:02:25;;;;;;;2.10;1.97;;;;;;;;;;4951482;29;20429;-78